»·PEaware :: ASA1070 KPDX-KLAX

ASA1070 :: KPDX-KLAX

FLIGHT INFORMATION

Flight Status: Arrived
Operator:
Alaska Airlines
More flights by this operator :: More flights under this callsign
Pilot: Paul P. (20696)
Aircraft: BOEING 737-900
(B739)
More flights by this aircraft type
Origin: KPDX Portland Intl
United States
Destination: KLAX Los Angeles Intl
United States
More flights between these airports :: More routes between these airports
Route: CASCD2 CHISM JUDAH JUNEJ Q7 JAGWA BURGL BAYST BAYST1
File this flight plan on PilotEdge
Remarks: RMK / SIMBRIEF
Altitude:
(Current/Filed)
35,000ft
Speed:
(Current/Filed)
455kts
Departed: 10-Sep-23 09:44 AM
Arrived: 10-Sep-23 11:41 AM
Distance/Time
Traveled:
725nm/1:57
Distance/Time
To Go:
Arrived

Flight Plot

Page will automatically refresh every two minutes.

Flight plan parsing failed; only flown route is shown


Map Options




Map Legend


Flown Route
Filed Route
Departure Airport
Arrival Airport
Navaid (VOR, NDB)
Fix

Horizontal Profiles

Position Reports

Time Latitude Longitude Heading Altitude Ground
Speed
10-Sep-23 09:05 45.590300 -122.598358 212 17ft 0kts
10-Sep-23 09:06 45.590300 -122.598358 212 17ft 0kts
10-Sep-23 09:07 45.590300 -122.598358 212 17ft 0kts
10-Sep-23 09:08 45.590300 -122.598358 212 17ft 0kts
10-Sep-23 09:09 45.590300 -122.598358 212 16ft 0kts
10-Sep-23 09:10 45.590300 -122.598358 212 16ft 0kts
10-Sep-23 09:11 45.590300 -122.598358 212 16ft 0kts
10-Sep-23 09:12 45.590300 -122.598358 212 16ft 0kts
10-Sep-23 09:13 45.590300 -122.598358 212 16ft 0kts
10-Sep-23 09:14 45.590300 -122.598358 212 16ft 0kts
10-Sep-23 09:15 45.590300 -122.598358 212 16ft 0kts
10-Sep-23 09:16 45.590300 -122.598358 212 16ft 0kts
10-Sep-23 09:17 45.590300 -122.598358 212 16ft 0kts
10-Sep-23 09:18 45.590300 -122.598358 212 16ft 0kts
10-Sep-23 09:19 45.590300 -122.598358 212 16ft 0kts
10-Sep-23 09:20 45.590300 -122.598358 212 16ft 0kts
10-Sep-23 09:21 45.590300 -122.598358 212 16ft 0kts
10-Sep-23 09:22 45.590300 -122.598358 212 16ft 0kts
10-Sep-23 09:23 45.590300 -122.598358 212 16ft 0kts
10-Sep-23 09:24 45.590300 -122.598358 212 16ft 0kts
10-Sep-23 09:25 45.590300 -122.598358 212 16ft 0kts
10-Sep-23 09:26 45.590300 -122.598358 212 16ft 0kts
10-Sep-23 09:27 45.590300 -122.598358 212 16ft 0kts
10-Sep-23 09:28 45.590300 -122.598358 212 16ft 0kts
10-Sep-23 09:29 45.590300 -122.598358 212 16ft 0kts
10-Sep-23 09:30 45.590300 -122.598358 212 16ft 0kts
10-Sep-23 09:31 45.590300 -122.598358 212 16ft 0kts
10-Sep-23 09:32 45.590300 -122.598358 212 16ft 0kts
10-Sep-23 09:33 45.590715 -122.597816 265 16ft 2kts
10-Sep-23 09:34 45.590560 -122.597178 299 17ft 0kts
10-Sep-23 09:35 45.590560 -122.597178 299 17ft 0kts
10-Sep-23 09:36 45.590572 -122.597209 299 17ft 1kts
10-Sep-23 09:37 45.590813 -122.597822 299 16ft 0kts
10-Sep-23 09:38 45.590988 -122.598145 314 17ft 7kts
10-Sep-23 09:39 45.592795 -122.599813 31 18ft 8kts
10-Sep-23 09:40 45.594196 -122.597829 45 18ft 0kts
10-Sep-23 09:41 45.594349 -122.597622 42 19ft 0kts
10-Sep-23 09:42 45.594938 -122.596091 107 22ft 12kts
10-Sep-23 09:43 45.588365 -122.579069 117 44ft 156kts
10-Sep-23 09:44 45.574114 -122.510667 104 2073ft 228kts
10-Sep-23 09:45 45.556783 -122.411552 105 4982ft 266kts
10-Sep-23 09:46 45.528963 -122.313657 143 8184ft 275kts
10-Sep-23 09:47 45.458353 -122.266680 169 10580ft 313kts
10-Sep-23 09:48 45.365048 -122.240327 169 12501ft 354kts
10-Sep-23 09:49 45.266453 -122.211727 169 14967ft 369kts
10-Sep-23 09:50 45.163904 -122.181941 170 17199ft 383kts
10-Sep-23 09:51 45.057564 -122.151040 169 19143ft 396kts
10-Sep-23 09:52 44.949371 -122.108726 166 20922ft 409kts
10-Sep-23 09:53 44.838489 -122.064305 167 22631ft 421kts
10-Sep-23 09:54 44.724133 -122.019405 167 24128ft 432kts
10-Sep-23 09:55 44.606725 -121.973549 167 25487ft 443kts
10-Sep-23 09:56 44.486979 -121.926969 167 26852ft 452kts
10-Sep-23 09:58 44.364456 -121.879520 167 28106ft 462kts
10-Sep-23 09:59 44.239061 -121.831163 167 29305ft 472kts
10-Sep-23 10:00 44.112288 -121.782465 168 30926ft 469kts
10-Sep-23 10:01 43.986874 -121.734520 168 32289ft 467kts
10-Sep-23 10:02 43.861938 -121.686981 168 33618ft 464kts
10-Sep-23 10:03 43.738072 -121.640049 168 34691ft 462kts
10-Sep-23 10:04 43.613755 -121.593163 168 35135ft 462kts
10-Sep-23 10:05 43.490500 -121.546836 168 35139ft 457kts
10-Sep-23 10:06 43.368237 -121.501112 168 35143ft 455kts
10-Sep-23 10:07 43.245679 -121.455467 168 35157ft 457kts
10-Sep-23 10:08 43.122393 -121.409732 168 35157ft 460kts
10-Sep-23 10:09 42.998832 -121.364075 168 35165ft 462kts
10-Sep-23 10:10 42.874131 -121.319312 173 35166ft 461kts
10-Sep-23 10:11 42.748169 -121.291956 175 35174ft 458kts
10-Sep-23 10:12 42.622157 -121.264965 174 35187ft 458kts
10-Sep-23 10:13 42.496489 -121.237387 174 35183ft 457kts
10-Sep-23 10:14 42.371336 -121.210048 175 35189ft 456kts
10-Sep-23 10:15 42.245831 -121.182756 175 35191ft 456kts
10-Sep-23 10:16 42.120845 -121.155684 175 35193ft 456kts
10-Sep-23 10:17 41.994994 -121.128533 175 35182ft 457kts
10-Sep-23 10:18 41.869687 -121.101605 175 35169ft 457kts
10-Sep-23 10:19 41.744109 -121.074728 175 35171ft 457kts
10-Sep-23 10:20 41.618399 -121.047927 175 35169ft 457kts
10-Sep-23 10:21 41.492326 -121.021153 175 35159ft 458kts
10-Sep-23 10:22 41.366921 -120.994632 175 35163ft 457kts
10-Sep-23 10:23 41.240898 -120.968077 175 35157ft 457kts
10-Sep-23 10:24 41.115332 -120.941715 175 35154ft 457kts
10-Sep-23 10:24 41.010600 -120.919806 175 35161ft 456kts
10-Sep-23 10:26 40.864275 -120.906199 181 35171ft 452kts
10-Sep-23 10:27 40.738687 -120.896947 181 35176ft 452kts
10-Sep-23 10:28 40.612897 -120.886936 181 35161ft 452kts
10-Sep-23 10:28 40.508323 -120.878620 181 35162ft 452kts
10-Sep-23 10:29 40.382528 -120.868681 181 35160ft 452kts
10-Sep-23 10:30 40.257068 -120.858799 181 35147ft 452kts
10-Sep-23 10:31 40.131743 -120.848953 181 35148ft 451kts
10-Sep-23 10:33 39.985676 -120.837535 181 35141ft 451kts
10-Sep-23 10:33 39.881444 -120.829420 181 35134ft 450kts
10-Sep-23 10:34 39.756409 -120.819713 181 35125ft 450kts
10-Sep-23 10:35 39.631035 -120.810009 181 35126ft 449kts
10-Sep-23 10:36 39.506371 -120.800407 181 35198ft 450kts
10-Sep-23 10:37 39.381577 -120.790824 181 35289ft 449kts
10-Sep-23 10:38 39.256776 -120.781281 181 35314ft 449kts
10-Sep-23 10:39 39.131921 -120.771768 181 35265ft 450kts
10-Sep-23 10:40 39.007119 -120.762278 182 35092ft 450kts
10-Sep-23 10:41 38.881887 -120.752802 182 35159ft 450kts
10-Sep-23 10:42 38.756910 -120.743373 182 35189ft 451kts
10-Sep-23 10:43 38.631485 -120.733944 182 35190ft 451kts
10-Sep-23 10:44 38.506142 -120.724560 182 35125ft 452kts
10-Sep-23 10:45 38.380466 -120.715174 182 35136ft 452kts
10-Sep-23 10:46 38.254903 -120.705833 182 35109ft 452kts
10-Sep-23 10:47 38.129130 -120.696500 183 35120ft 450kts
10-Sep-23 10:48 38.004322 -120.687288 183 35102ft 450kts
10-Sep-23 10:49 37.879315 -120.678079 183 35077ft 449kts
10-Sep-23 10:50 37.754896 -120.668958 183 35056ft 449kts
10-Sep-23 10:51 37.629910 -120.659814 183 35061ft 448kts
10-Sep-23 10:52 37.505621 -120.650755 183 35068ft 448kts
10-Sep-23 10:53 37.381221 -120.641715 183 35071ft 447kts
10-Sep-23 10:54 37.257657 -120.615721 172 35068ft 457kts
10-Sep-23 10:55 37.134881 -120.574742 172 35068ft 456kts
10-Sep-23 10:56 37.011998 -120.534897 173 35058ft 456kts
10-Sep-23 10:57 36.889222 -120.495342 173 35064ft 455kts
10-Sep-23 10:58 36.766728 -120.455989 173 35062ft 455kts
10-Sep-23 10:59 36.644307 -120.416785 173 35067ft 454kts
10-Sep-23 11:00 36.521638 -120.377634 173 35066ft 454kts
10-Sep-23 11:01 36.399064 -120.338639 173 35066ft 454kts
10-Sep-23 11:02 36.276977 -120.299926 173 35073ft 454kts
10-Sep-23 11:03 36.154293 -120.261146 173 35074ft 454kts
10-Sep-23 11:04 36.032160 -120.222656 173 35079ft 454kts
10-Sep-23 11:05 35.909648 -120.184187 173 35059ft 454kts
10-Sep-23 11:06 35.787148 -120.145828 173 35067ft 454kts
10-Sep-23 11:07 35.664988 -120.106656 165 35047ft 461kts
10-Sep-23 11:08 35.552602 -120.023113 155 35055ft 473kts
10-Sep-23 11:09 35.441172 -119.938447 155 35058ft 473kts
10-Sep-23 11:10 35.328769 -119.854153 155 35068ft 474kts
10-Sep-23 11:11 35.219401 -119.761778 148 35072ft 482kts
10-Sep-23 11:12 35.112317 -119.659353 148 32979ft 487kts
10-Sep-23 11:13 35.007044 -119.561398 148 30773ft 466kts
10-Sep-23 11:14 34.905142 -119.467035 148 28387ft 451kts
10-Sep-23 11:15 34.806098 -119.378582 148 26243ft 435kts
10-Sep-23 11:16 34.711270 -119.294488 148 24622ft 415kts
10-Sep-23 11:17 34.617762 -119.213228 148 22448ft 409kts
10-Sep-23 11:18 34.526527 -119.133980 147 20422ft 399kts
10-Sep-23 11:19 34.438142 -119.055560 147 18395ft 382kts
10-Sep-23 11:20 34.354254 -118.982985 147 16423ft 365kts
10-Sep-23 11:21 34.272998 -118.909775 145 14534ft 362kts
10-Sep-23 11:22 34.193991 -118.837358 144 12888ft 335kts
10-Sep-23 11:23 34.126109 -118.769193 139 11864ft 314kts
10-Sep-23 11:24 34.062465 -118.699291 139 10436ft 304kts
10-Sep-23 11:25 34.024518 -118.615311 96 9313ft 293kts
10-Sep-23 11:26 34.016046 -118.519413 96 8308ft 275kts
10-Sep-23 11:27 33.999251 -118.435629 124 7842ft 250kts
10-Sep-23 11:28 33.960922 -118.362664 123 7366ft 260kts
10-Sep-23 11:29 33.927390 -118.289080 107 6823ft 243kts
10-Sep-23 11:30 33.909213 -118.211506 100 6146ft 241kts
10-Sep-23 11:31 33.913810 -118.134321 81 5278ft 222kts
10-Sep-23 11:32 33.921260 -118.065588 81 4125ft 202kts
10-Sep-23 11:33 33.957347 -118.038260 310 3961ft 188kts
10-Sep-23 11:34 33.962703 -118.101285 271 3994ft 190kts
10-Sep-23 11:35 33.959889 -118.164898 264 3500ft 197kts
10-Sep-23 11:36 33.953361 -118.227734 263 2547ft 190kts
10-Sep-23 11:37 33.947388 -118.285373 262 1661ft 151kts
10-Sep-23 11:38 33.942195 -118.335792 262 911ft 153kts
10-Sep-23 11:39 33.937123 -118.385277 262 135ft 144kts
10-Sep-23 11:40 33.935008 -118.410601 283 111ft 17kts
10-Sep-23 11:41 33.935751 -118.412272 322 105ft 9kts
10-Sep-23 11:42 33.937622 -118.411824 88 101ft 7kts
10-Sep-23 11:43 33.937960 -118.407988 82 100ft 15kts
10-Sep-23 11:44 33.938313 -118.404732 84 102ft 4kts
10-Sep-23 11:45 33.938622 -118.401733 84 103ft 9kts
10-Sep-23 11:46 33.940711 -118.400726 354 94ft 1kts
10-Sep-23 11:47 33.941362 -118.400883 301 95ft 2kts
10-Sep-23 11:48 33.941450 -118.401467 274 95ft 0kts
10-Sep-23 11:49 33.941450 -118.401467 274 95ft 0kts
10-Sep-23 11:50 33.941450 -118.401467 274 95ft 0kts

Navigation Log

Ident Type
Flight plan parsing failed, navigation log unavailable